sensor_id;sensor_type;location;lat;lon;timestamp;temperature;humidity
75925;DHT22;64604;44.752;37.674;2022-12-18T00:00:21;11.42;88.39
75925;DHT22;64604;44.752;37.674;2022-12-18T00:01:33;11.42;88.26
75925;DHT22;64604;44.752;37.674;2022-12-18T00:02:35;11.41;88.31
75925;DHT22;64604;44.752;37.674;2022-12-18T00:03:36;11.39;88.30
75925;DHT22;64604;44.752;37.674;2022-12-18T00:04:38;11.37;88.22
75925;DHT22;64604;44.752;37.674;2022-12-18T00:05:49;11.33;88.07
75925;DHT22;64604;44.752;37.674;2022-12-18T00:06:51;11.32;88.46
75925;DHT22;64604;44.752;37.674;2022-12-18T00:07:52;11.30;88.39
75925;DHT22;64604;44.752;37.674;2022-12-18T00:08:55;11.31;88.36
75925;DHT22;64604;44.752;37.674;2022-12-18T00:09:57;11.29;88.33
75925;DHT22;64604;44.752;37.674;2022-12-18T00:11:05;11.28;88.12
75925;DHT22;64604;44.752;37.674;2022-12-18T00:12:07;11.27;88.22
75925;DHT22;64604;44.752;37.674;2022-12-18T00:13:09;11.26;88.09
75925;DHT22;64604;44.752;37.674;2022-12-18T00:14:12;11.24;88.06
75925;DHT22;64604;44.752;37.674;2022-12-18T00:15:13;11.24;87.99
75925;DHT22;64604;44.752;37.674;2022-12-18T00:16:17;11.22;87.99
75925;DHT22;64604;44.752;37.674;2022-12-18T00:17:21;11.19;88.02
75925;DHT22;64604;44.752;37.674;2022-12-18T00:18:22;11.23;87.84
75925;DHT22;64604;44.752;37.674;2022-12-18T00:19:24;11.20;87.93
75925;DHT22;64604;44.752;37.674;2022-12-18T00:20:25;11.20;88.07
75925;DHT22;64604;44.752;37.674;2022-12-18T00:21:28;11.20;88.17
75925;DHT22;64604;44.752;37.674;2022-12-18T00:22:30;11.18;88.22
75925;DHT22;64604;44.752;37.674;2022-12-18T00:23:32;11.16;88.39
75925;DHT22;64604;44.752;37.674;2022-12-18T00:24:34;11.16;88.49
75925;DHT22;64604;44.752;37.674;2022-12-18T00:25:36;11.16;88.29
75925;DHT22;64604;44.752;37.674;2022-12-18T00:26:39;11.20;88.02
75925;DHT22;64604;44.752;37.674;2022-12-18T00:27:40;11.20;87.89
75925;DHT22;64604;44.752;37.674;2022-12-18T00:28:42;11.20;87.84
75925;DHT22;64604;44.752;37.674;2022-12-18T00:29:43;11.20;87.80
75925;DHT22;64604;44.752;37.674;2022-12-18T00:30:45;11.20;87.73
75925;DHT22;64604;44.752;37.674;2022-12-18T00:31:46;11.20;87.56
75925;DHT22;64604;44.752;37.674;2022-12-18T00:32:48;11.18;87.41
75925;DHT22;64604;44.752;37.674;2022-12-18T00:33:50;11.17;87.27
75925;DHT22;64604;44.752;37.674;2022-12-18T00:34:51;11.18;87.11
75925;DHT22;64604;44.752;37.674;2022-12-18T00:35:52;11.16;87.01
75925;DHT22;64604;44.752;37.674;2022-12-18T00:36:54;11.15;87.18
75925;DHT22;64604;44.752;37.674;2022-12-18T00:37:56;11.14;87.16
75925;DHT22;64604;44.752;37.674;2022-12-18T00:39:00;11.14;87.09
75925;DHT22;64604;44.752;37.674;2022-12-18T00:40:01;11.15;86.88
75925;DHT22;64604;44.752;37.674;2022-12-18T00:41:07;11.16;86.59
75925;DHT22;64604;44.752;37.674;2022-12-18T00:42:10;11.18;86.45
75925;DHT22;64604;44.752;37.674;2022-12-18T00:43:30;11.18;86.11
75925;DHT22;64604;44.752;37.674;2022-12-18T00:44:31;11.19;85.92
75925;DHT22;64604;44.752;37.674;2022-12-18T00:45:33;11.20;85.68
75925;DHT22;64604;44.752;37.674;2022-12-18T00:46:34;11.22;85.79
75925;DHT22;64604;44.752;37.674;2022-12-18T00:47:36;11.22;85.74
75925;DHT22;64604;44.752;37.674;2022-12-18T00:48:37;11.23;85.39
75925;DHT22;64604;44.752;37.674;2022-12-18T00:49:39;11.26;85.33
75925;DHT22;64604;44.752;37.674;2022-12-18T00:50:40;11.29;85.26
75925;DHT22;64604;44.752;37.674;2022-12-18T00:51:42;11.28;85.51
75925;DHT22;64604;44.752;37.674;2022-12-18T00:52:43;11.28;85.54
75925;DHT22;64604;44.752;37.674;2022-12-18T00:53:45;11.27;85.84
75925;DHT22;64604;44.752;37.674;2022-12-18T00:54:46;11.31;85.79
75925;DHT22;64604;44.752;37.674;2022-12-18T00:55:48;11.33;86.22
75925;DHT22;64604;44.752;37.674;2022-12-18T00:56:49;11.31;86.25
75925;DHT22;64604;44.752;37.674;2022-12-18T00:57:51;11.31;86.38
75925;DHT22;64604;44.752;37.674;2022-12-18T00:58:53;11.28;86.68
75925;DHT22;64604;44.752;37.674;2022-12-18T00:59:54;11.28;86.84
75925;DHT22;64604;44.752;37.674;2022-12-18T01:00:55;11.27;86.90
75925;DHT22;64604;44.752;37.674;2022-12-18T01:01:57;11.27;87.06
75925;DHT22;64604;44.752;37.674;2022-12-18T01:02:58;11.27;87.12
75925;DHT22;64604;44.752;37.674;2022-12-18T01:04:02;11.28;87.09
75925;DHT22;64604;44.752;37.674;2022-12-18T01:05:04;11.29;87.11
75925;DHT22;64604;44.752;37.674;2022-12-18T01:06:07;11.30;87.09
75925;DHT22;64604;44.752;37.674;2022-12-18T01:07:08;11.33;86.90
75925;DHT22;64604;44.752;37.674;2022-12-18T01:08:10;11.32;86.93
75925;DHT22;64604;44.752;37.674;2022-12-18T01:09:11;11.29;86.89
75925;DHT22;64604;44.752;37.674;2022-12-18T01:10:13;11.27;86.87
75925;DHT22;64604;44.752;37.674;2022-12-18T01:11:17;11.25;87.17
75925;DHT22;64604;44.752;37.674;2022-12-18T01:12:18;11.23;86.96
75925;DHT22;64604;44.752;37.674;2022-12-18T01:13:20;11.22;87.02
75925;DHT22;64604;44.752;37.674;2022-12-18T01:14:24;11.20;86.96
75925;DHT22;64604;44.752;37.674;2022-12-18T01:15:27;11.20;86.80
75925;DHT22;64604;44.752;37.674;2022-12-18T01:16:29;11.20;86.64
75925;DHT22;64604;44.752;37.674;2022-12-18T01:17:31;11.18;86.57
75925;DHT22;64604;44.752;37.674;2022-12-18T01:18:35;11.16;86.41
75925;DHT22;64604;44.752;37.674;2022-12-18T01:19:37;11.18;86.19
75925;DHT22;64604;44.752;37.674;2022-12-18T01:20:38;11.22;86.02
75925;DHT22;64604;44.752;37.674;2022-12-18T01:21:40;11.24;85.93
75925;DHT22;64604;44.752;37.674;2022-12-18T01:22:41;11.22;85.89
75925;DHT22;64604;44.752;37.674;2022-12-18T01:23:44;11.19;85.83
75925;DHT22;64604;44.752;37.674;2022-12-18T01:24:45;11.15;85.93
75925;DHT22;64604;44.752;37.674;2022-12-18T01:25:46;11.13;85.73
75925;DHT22;64604;44.752;37.674;2022-12-18T01:26:48;11.12;85.93
75925;DHT22;64604;44.752;37.674;2022-12-18T01:27:49;11.10;85.62
75925;DHT22;64604;44.752;37.674;2022-12-18T01:28:51;11.09;85.42
75925;DHT22;64604;44.752;37.674;2022-12-18T01:29:52;11.10;85.29
75925;DHT22;64604;44.752;37.674;2022-12-18T01:30:54;11.13;85.06
75925;DHT22;64604;44.752;37.674;2022-12-18T01:31:56;11.12;85.16
75925;DHT22;64604;44.752;37.674;2022-12-18T01:32:57;11.13;85.02
75925;DHT22;64604;44.752;37.674;2022-12-18T01:34:04;11.10;84.90
75925;DHT22;64604;44.752;37.674;2022-12-18T01:35:06;11.07;84.99
75925;DHT22;64604;44.752;37.674;2022-12-18T01:36:08;11.09;84.90
75925;DHT22;64604;44.752;37.674;2022-12-18T01:37:10;11.12;84.72
75925;DHT22;64604;44.752;37.674;2022-12-18T01:38:11;11.11;84.70
75925;DHT22;64604;44.752;37.674;2022-12-18T01:39:14;11.09;84.70
75925;DHT22;64604;44.752;37.674;2022-12-18T01:40:16;11.10;84.48
75925;DHT22;64604;44.752;37.674;2022-12-18T01:41:20;11.13;84.29
75925;DHT22;64604;44.752;37.674;2022-12-18T01:42:22;11.14;84.25
75925;DHT22;64604;44.752;37.674;2022-12-18T01:43:54;11.16;84.05
75925;DHT22;64604;44.752;37.674;2022-12-18T01:46:13;11.14;84.31
75925;DHT22;64604;44.752;37.674;2022-12-18T01:48:39;11.11;84.32
75925;DHT22;64604;44.752;37.674;2022-12-18T01:49:41;11.12;84.23
75925;DHT22;64604;44.752;37.674;2022-12-18T01:50:43;11.09;84.40
75925;DHT22;64604;44.752;37.674;2022-12-18T01:51:44;11.08;84.17
75925;DHT22;64604;44.752;37.674;2022-12-18T01:52:50;11.07;84.17
75925;DHT22;64604;44.752;37.674;2022-12-18T01:53:52;11.09;84.19
75925;DHT22;64604;44.752;37.674;2022-12-18T01:54:54;11.08;84.04
75925;DHT22;64604;44.752;37.674;2022-12-18T01:55:57;11.07;84.21
75925;DHT22;64604;44.752;37.674;2022-12-18T01:56:59;11.11;84.22
75925;DHT22;64604;44.752;37.674;2022-12-18T01:58:02;11.14;84.19
75925;DHT22;64604;44.752;37.674;2022-12-18T01:59:06;11.20;84.12
75925;DHT22;64604;44.752;37.674;2022-12-18T02:00:14;11.26;83.79
75925;DHT22;64604;44.752;37.674;2022-12-18T02:01:16;11.33;83.68
75925;DHT22;64604;44.752;37.674;2022-12-18T02:02:18;11.32;83.74
75925;DHT22;64604;44.752;37.674;2022-12-18T02:03:20;11.34;83.68
75925;DHT22;64604;44.752;37.674;2022-12-18T02:04:23;11.31;83.68
75925;DHT22;64604;44.752;37.674;2022-12-18T02:07:09;11.24;83.96
75925;DHT22;64604;44.752;37.674;2022-12-18T02:09:48;11.25;84.26
75925;DHT22;64604;44.752;37.674;2022-12-18T02:12:18;11.26;84.38
75925;DHT22;64604;44.752;37.674;2022-12-18T02:15:00;11.27;84.58
75925;DHT22;64604;44.752;37.674;2022-12-18T02:17:58;11.23;85.14
75925;DHT22;64604;44.752;37.674;2022-12-18T02:20:44;11.20;85.61
75925;DHT22;64604;44.752;37.674;2022-12-18T02:22:03;11.20;85.40
75925;DHT22;64604;44.752;37.674;2022-12-18T02:26:34;11.20;85.45
75925;DHT22;64604;44.752;37.674;2022-12-18T02:27:40;11.16;85.55
75925;DHT22;64604;44.752;37.674;2022-12-18T02:28:51;11.12;85.64
75925;DHT22;64604;44.752;37.674;2022-12-18T02:29:54;11.13;85.74
75925;DHT22;64604;44.752;37.674;2022-12-18T02:30:58;11.12;85.96
75925;DHT22;64604;44.752;37.674;2022-12-18T02:32:06;11.11;85.90
75925;DHT22;64604;44.752;37.674;2022-12-18T02:33:09;11.10;86.11
75925;DHT22;64604;44.752;37.674;2022-12-18T02:34:13;11.12;85.97
75925;DHT22;64604;44.752;37.674;2022-12-18T02:35:22;11.14;85.90
75925;DHT22;64604;44.752;37.674;2022-12-18T02:36:28;11.16;85.84
75925;DHT22;64604;44.752;37.674;2022-12-18T02:37:32;11.15;85.80
75925;DHT22;64604;44.752;37.674;2022-12-18T02:38:37;11.16;85.67
75925;DHT22;64604;44.752;37.674;2022-12-18T02:39:48;11.15;85.62
75925;DHT22;64604;44.752;37.674;2022-12-18T02:40:51;11.14;85.70
75925;DHT22;64604;44.752;37.674;2022-12-18T02:41:54;11.15;85.66
75925;DHT22;64604;44.752;37.674;2022-12-18T02:43:10;11.16;85.53
75925;DHT22;64604;44.752;37.674;2022-12-18T02:44:13;11.17;85.48
75925;DHT22;64604;44.752;37.674;2022-12-18T02:45:16;11.14;85.61
75925;DHT22;64604;44.752;37.674;2022-12-18T02:47:36;11.11;85.67
75925;DHT22;64604;44.752;37.674;2022-12-18T02:48:40;11.09;85.75
75925;DHT22;64604;44.752;37.674;2022-12-18T02:51:28;11.08;85.73
75925;DHT22;64604;44.752;37.674;2022-12-18T02:54:03;11.11;85.73
75925;DHT22;64604;44.752;37.674;2022-12-18T02:56:49;11.09;85.87
75925;DHT22;64604;44.752;37.674;2022-12-18T02:57:56;11.10;85.74
75925;DHT22;64604;44.752;37.674;2022-12-18T02:59:11;11.07;85.74
75925;DHT22;64604;44.752;37.674;2022-12-18T03:00:24;11.04;86.03
75925;DHT22;64604;44.752;37.674;2022-12-18T03:03:09;11.10;86.36
75925;DHT22;64604;44.752;37.674;2022-12-18T03:04:20;11.09;86.06
75925;DHT22;64604;44.752;37.674;2022-12-18T03:05:43;11.08;86.27
75925;DHT22;64604;44.752;37.674;2022-12-18T03:06:49;11.09;86.27
75925;DHT22;64604;44.752;37.674;2022-12-18T03:08:16;11.10;86.30
75925;DHT22;64604;44.752;37.674;2022-12-18T03:09:24;11.10;86.25
75925;DHT22;64604;44.752;37.674;2022-12-18T03:10:31;11.09;86.34
75925;DHT22;64604;44.752;37.674;2022-12-18T03:11:34;11.09;86.39
75925;DHT22;64604;44.752;37.674;2022-12-18T03:13:07;11.08;86.36
75925;DHT22;64604;44.752;37.674;2022-12-18T03:14:12;11.04;86.40
75925;DHT22;64604;44.752;37.674;2022-12-18T03:15:18;11.04;86.61
75925;DHT22;64604;44.752;37.674;2022-12-18T03:16:27;11.04;86.52
75925;DHT22;64604;44.752;37.674;2022-12-18T03:17:32;11.01;86.65
75925;DHT22;64604;44.752;37.674;2022-12-18T03:18:45;11.01;86.79
75925;DHT22;64604;44.752;37.674;2022-12-18T03:19:49;11.00;86.87
75925;DHT22;64604;44.752;37.674;2022-12-18T03:20:55;11.03;86.73
75925;DHT22;64604;44.752;37.674;2022-12-18T03:22:00;11.05;86.84
75925;DHT22;64604;44.752;37.674;2022-12-18T03:23:15;11.08;86.68
75925;DHT22;64604;44.752;37.674;2022-12-18T03:24:23;11.10;86.61
75925;DHT22;64604;44.752;37.674;2022-12-18T03:25:26;11.12;86.57
75925;DHT22;64604;44.752;37.674;2022-12-18T03:26:30;11.14;86.56
75925;DHT22;64604;44.752;37.674;2022-12-18T03:27:38;11.15;86.59
75925;DHT22;64604;44.752;37.674;2022-12-18T03:28:52;11.16;86.58
75925;DHT22;64604;44.752;37.674;2022-12-18T03:30:04;11.15;86.69
75925;DHT22;64604;44.752;37.674;2022-12-18T03:31:12;11.16;86.74
75925;DHT22;64604;44.752;37.674;2022-12-18T03:32:26;11.19;86.85
75925;DHT22;64604;44.752;37.674;2022-12-18T03:33:34;11.16;87.19
75925;DHT22;64604;44.752;37.674;2022-12-18T03:34:38;11.20;87.34
75925;DHT22;64604;44.752;37.674;2022-12-18T03:35:43;11.25;87.44
75925;DHT22;64604;44.752;37.674;2022-12-18T03:36:46;11.26;87.60
75925;DHT22;64604;44.752;37.674;2022-12-18T03:37:49;11.28;87.57
75925;DHT22;64604;44.752;37.674;2022-12-18T03:38:51;11.25;87.86
75925;DHT22;64604;44.752;37.674;2022-12-18T03:39:53;11.23;88.11
75925;DHT22;64604;44.752;37.674;2022-12-18T03:41:19;11.20;88.73
75925;DHT22;64604;44.752;37.674;2022-12-18T03:43:03;11.18;89.07
75925;DHT22;64604;44.752;37.674;2022-12-18T03:45:24;11.17;89.30
75925;DHT22;64604;44.752;37.674;2022-12-18T03:46:33;11.17;89.39
75925;DHT22;64604;44.752;37.674;2022-12-18T03:49:13;11.13;90.30
75925;DHT22;64604;44.752;37.674;2022-12-18T03:52:22;11.24;90.71
75925;DHT22;64604;44.752;37.674;2022-12-18T03:54:55;11.27;90.10
75925;DHT22;64604;44.752;37.674;2022-12-18T03:55:59;11.29;90.11
75925;DHT22;64604;44.752;37.674;2022-12-18T03:57:19;11.29;90.06
75925;DHT22;64604;44.752;37.674;2022-12-18T03:58:25;11.27;90.29
75925;DHT22;64604;44.752;37.674;2022-12-18T03:59:36;11.27;90.39
75925;DHT22;64604;44.752;37.674;2022-12-18T04:00:39;11.26;90.64
75925;DHT22;64604;44.752;37.674;2022-12-18T04:01:47;11.28;90.71
75925;DHT22;64604;44.752;37.674;2022-12-18T04:02:52;11.29;90.75
75925;DHT22;64604;44.752;37.674;2022-12-18T04:04:01;11.29;90.73
75925;DHT22;64604;44.752;37.674;2022-12-18T04:05:07;11.30;90.94
75925;DHT22;64604;44.752;37.674;2022-12-18T04:06:13;11.30;90.98
75925;DHT22;64604;44.752;37.674;2022-12-18T04:07:17;11.31;91.02
75925;DHT22;64604;44.752;37.674;2022-12-18T04:08:20;11.31;90.99
75925;DHT22;64604;44.752;37.674;2022-12-18T04:09:32;11.30;91.04
75925;DHT22;64604;44.752;37.674;2022-12-18T04:10:34;11.28;91.26
75925;DHT22;64604;44.752;37.674;2022-12-18T04:11:36;11.26;91.52
75925;DHT22;64604;44.752;37.674;2022-12-18T04:12:39;11.28;91.93
75925;DHT22;64604;44.752;37.674;2022-12-18T04:13:43;11.32;92.05
75925;DHT22;64604;44.752;37.674;2022-12-18T04:14:53;11.33;92.06
75925;DHT22;64604;44.752;37.674;2022-12-18T04:15:54;11.33;92.11
75925;DHT22;64604;44.752;37.674;2022-12-18T04:16:57;11.31;92.08
75925;DHT22;64604;44.752;37.674;2022-12-18T04:18:04;11.30;92.13
75925;DHT22;64604;44.752;37.674;2022-12-18T04:19:13;11.27;92.19
75925;DHT22;64604;44.752;37.674;2022-12-18T04:20:16;11.24;92.16
75925;DHT22;64604;44.752;37.674;2022-12-18T04:21:19;11.26;91.83
75925;DHT22;64604;44.752;37.674;2022-12-18T04:22:22;11.26;91.79
75925;DHT22;64604;44.752;37.674;2022-12-18T04:23:28;11.27;91.79
75925;DHT22;64604;44.752;37.674;2022-12-18T04:24:32;11.27;91.63
75925;DHT22;64604;44.752;37.674;2022-12-18T04:25:43;11.24;90.87
75925;DHT22;64604;44.752;37.674;2022-12-18T04:26:51;11.28;89.61
75925;DHT22;64604;44.752;37.674;2022-12-18T04:27:58;11.29;89.12
75925;DHT22;64604;44.752;37.674;2022-12-18T04:29:00;11.31;89.44
75925;DHT22;64604;44.752;37.674;2022-12-18T04:30:03;11.34;88.61
75925;DHT22;64604;44.752;37.674;2022-12-18T04:31:05;11.41;87.89
75925;DHT22;64604;44.752;37.674;2022-12-18T04:32:07;11.46;87.88
75925;DHT22;64604;44.752;37.674;2022-12-18T04:33:13;11.48;87.77
75925;DHT22;64604;44.752;37.674;2022-12-18T04:34:14;11.48;88.42
75925;DHT22;64604;44.752;37.674;2022-12-18T04:35:22;11.46;88.53
75925;DHT22;64604;44.752;37.674;2022-12-18T04:36:24;11.49;88.27
75925;DHT22;64604;44.752;37.674;2022-12-18T04:37:25;11.49;87.98
75925;DHT22;64604;44.752;37.674;2022-12-18T04:38:27;11.49;87.87
75925;DHT22;64604;44.752;37.674;2022-12-18T04:39:36;11.53;87.56
75925;DHT22;64604;44.752;37.674;2022-12-18T04:40:43;11.52;87.58
75925;DHT22;64604;44.752;37.674;2022-12-18T04:41:53;11.54;87.52
75925;DHT22;64604;44.752;37.674;2022-12-18T04:42:54;11.51;87.41
75925;DHT22;64604;44.752;37.674;2022-12-18T04:43:56;11.53;87.32
75925;DHT22;64604;44.752;37.674;2022-12-18T04:44:57;11.52;87.20
75925;DHT22;64604;44.752;37.674;2022-12-18T04:46:08;11.53;86.81
75925;DHT22;64604;44.752;37.674;2022-12-18T04:47:09;11.53;86.53
75925;DHT22;64604;44.752;37.674;2022-12-18T04:48:10;11.58;86.61
75925;DHT22;64604;44.752;37.674;2022-12-18T04:49:12;11.64;86.55
75925;DHT22;64604;44.752;37.674;2022-12-18T04:50:13;11.66;86.51
75925;DHT22;64604;44.752;37.674;2022-12-18T04:51:14;11.67;86.42
75925;DHT22;64604;44.752;37.674;2022-12-18T04:52:16;11.69;86.33
75925;DHT22;64604;44.752;37.674;2022-12-18T04:53:17;11.68;86.20
75925;DHT22;64604;44.752;37.674;2022-12-18T04:54:20;11.64;86.28
75925;DHT22;64604;44.752;37.674;2022-12-18T04:55:21;11.68;86.27
75925;DHT22;64604;44.752;37.674;2022-12-18T04:56:23;11.71;86.16
75925;DHT22;64604;44.752;37.674;2022-12-18T04:57:24;11.75;86.04
75925;DHT22;64604;44.752;37.674;2022-12-18T04:58:26;11.76;85.95
75925;DHT22;64604;44.752;37.674;2022-12-18T04:59:27;11.76;85.89
75925;DHT22;64604;44.752;37.674;2022-12-18T05:00:28;11.75;85.92
75925;DHT22;64604;44.752;37.674;2022-12-18T05:01:30;11.75;85.83
75925;DHT22;64604;44.752;37.674;2022-12-18T05:02:31;11.72;86.09
75925;DHT22;64604;44.752;37.674;2022-12-18T05:03:33;11.71;86.03
75925;DHT22;64604;44.752;37.674;2022-12-18T05:04:35;11.70;86.61
75925;DHT22;64604;44.752;37.674;2022-12-18T05:05:36;11.73;86.54
75925;DHT22;64604;44.752;37.674;2022-12-18T05:06:39;11.76;86.64
75925;DHT22;64604;44.752;37.674;2022-12-18T05:07:40;11.79;86.67
75925;DHT22;64604;44.752;37.674;2022-12-18T05:08:42;11.83;86.74
75925;DHT22;64604;44.752;37.674;2022-12-18T05:09:43;11.83;86.92
75925;DHT22;64604;44.752;37.674;2022-12-18T05:10:44;11.82;86.92
75925;DHT22;64604;44.752;37.674;2022-12-18T05:11:46;11.77;87.32
75925;DHT22;64604;44.752;37.674;2022-12-18T05:12:47;11.74;87.42
75925;DHT22;64604;44.752;37.674;2022-12-18T05:14:01;11.71;87.77
75925;DHT22;64604;44.752;37.674;2022-12-18T05:15:02;11.72;88.11
75925;DHT22;64604;44.752;37.674;2022-12-18T05:16:04;11.74;88.15
75925;DHT22;64604;44.752;37.674;2022-12-18T05:17:06;11.78;88.07
75925;DHT22;64604;44.752;37.674;2022-12-18T05:18:08;11.81;88.04
75925;DHT22;64604;44.752;37.674;2022-12-18T05:19:09;11.89;88.01
75925;DHT22;64604;44.752;37.674;2022-12-18T05:20:11;11.96;87.57
75925;DHT22;64604;44.752;37.674;2022-12-18T05:21:12;12.00;87.57
75925;DHT22;64604;44.752;37.674;2022-12-18T05:22:13;12.03;87.49
75925;DHT22;64604;44.752;37.674;2022-12-18T05:23:15;12.05;87.39
75925;DHT22;64604;44.752;37.674;2022-12-18T05:24:16;12.07;87.44
75925;DHT22;64604;44.752;37.674;2022-12-18T05:25:18;12.07;87.44
75925;DHT22;64604;44.752;37.674;2022-12-18T05:26:20;12.10;87.34
75925;DHT22;64604;44.752;37.674;2022-12-18T05:27:21;12.08;87.50
75925;DHT22;64604;44.752;37.674;2022-12-18T05:28:24;12.06;87.64
75925;DHT22;64604;44.752;37.674;2022-12-18T05:29:26;12.05;87.70
75925;DHT22;64604;44.752;37.674;2022-12-18T05:30:27;12.03;87.79
75925;DHT22;64604;44.752;37.674;2022-12-18T05:31:28;12.05;87.93
75925;DHT22;64604;44.752;37.674;2022-12-18T05:32:30;12.03;88.01
75925;DHT22;64604;44.752;37.674;2022-12-18T05:33:33;12.03;87.82
75925;DHT22;64604;44.752;37.674;2022-12-18T05:34:35;12.02;88.08
75925;DHT22;64604;44.752;37.674;2022-12-18T05:35:36;12.03;88.14
75925;DHT22;64604;44.752;37.674;2022-12-18T05:36:38;12.03;88.13
75925;DHT22;64604;44.752;37.674;2022-12-18T05:37:39;12.04;88.05
75925;DHT22;64604;44.752;37.674;2022-12-18T05:38:41;12.03;88.33
75925;DHT22;64604;44.752;37.674;2022-12-18T05:39:43;12.01;88.52
75925;DHT22;64604;44.752;37.674;2022-12-18T05:40:45;12.01;88.67
75925;DHT22;64604;44.752;37.674;2022-12-18T05:41:47;12.01;88.89
75925;DHT22;64604;44.752;37.674;2022-12-18T05:42:48;12.01;89.29
75925;DHT22;64604;44.752;37.674;2022-12-18T05:43:49;12.00;89.38
75925;DHT22;64604;44.752;37.674;2022-12-18T05:44:51;12.01;89.62
75925;DHT22;64604;44.752;37.674;2022-12-18T05:45:52;12.03;89.57
75925;DHT22;64604;44.752;37.674;2022-12-18T05:46:54;12.04;89.62
75925;DHT22;64604;44.752;37.674;2022-12-18T05:47:55;12.05;89.97
75925;DHT22;64604;44.752;37.674;2022-12-18T05:49:00;12.07;90.12
75925;DHT22;64604;44.752;37.674;2022-12-18T05:50:02;12.10;90.03
75925;DHT22;64604;44.752;37.674;2022-12-18T05:51:06;12.12;90.38
75925;DHT22;64604;44.752;37.674;2022-12-18T05:52:08;12.13;90.41
75925;DHT22;64604;44.752;37.674;2022-12-18T05:53:09;12.14;90.59
75925;DHT22;64604;44.752;37.674;2022-12-18T05:54:11;12.18;90.46
75925;DHT22;64604;44.752;37.674;2022-12-18T05:55:12;12.20;90.69
75925;DHT22;64604;44.752;37.674;2022-12-18T05:56:17;12.20;90.55
75925;DHT22;64604;44.752;37.674;2022-12-18T05:57:19;12.25;90.83
75925;DHT22;64604;44.752;37.674;2022-12-18T05:58:20;12.26;90.84
75925;DHT22;64604;44.752;37.674;2022-12-18T05:59:22;12.29;90.77
75925;DHT22;64604;44.752;37.674;2022-12-18T06:00:23;12.31;90.81
75925;DHT22;64604;44.752;37.674;2022-12-18T06:01:26;12.34;90.92
75925;DHT22;64604;44.752;37.674;2022-12-18T06:02:27;12.37;90.90
75925;DHT22;64604;44.752;37.674;2022-12-18T06:03:28;12.40;90.88
75925;DHT22;64604;44.752;37.674;2022-12-18T06:04:30;12.42;90.98
75925;DHT22;64604;44.752;37.674;2022-12-18T06:05:35;12.46;91.04
75925;DHT22;64604;44.752;37.674;2022-12-18T06:06:37;12.49;90.89
75925;DHT22;64604;44.752;37.674;2022-12-18T06:07:38;12.53;90.82
75925;DHT22;64604;44.752;37.674;2022-12-18T06:08:39;12.56;90.87
75925;DHT22;64604;44.752;37.674;2022-12-18T06:09:41;12.58;90.95
75925;DHT22;64604;44.752;37.674;2022-12-18T06:10:50;12.61;91.06
75925;DHT22;64604;44.752;37.674;2022-12-18T06:11:52;12.63;90.98
75925;DHT22;64604;44.752;37.674;2022-12-18T06:12:53;12.67;90.87
75925;DHT22;64604;44.752;37.674;2022-12-18T06:13:56;12.71;90.81
75925;DHT22;64604;44.752;37.674;2022-12-18T06:14:57;12.71;90.91
75925;DHT22;64604;44.752;37.674;2022-12-18T06:16:02;12.73;90.84
75925;DHT22;64604;44.752;37.674;2022-12-18T06:17:03;12.74;90.83
75925;DHT22;64604;44.752;37.674;2022-12-18T06:18:05;12.77;90.69
75925;DHT22;64604;44.752;37.674;2022-12-18T06:19:06;12.79;90.81
75925;DHT22;64604;44.752;37.674;2022-12-18T06:20:08;12.84;90.67
75925;DHT22;64604;44.752;37.674;2022-12-18T06:21:09;12.86;90.53
75925;DHT22;64604;44.752;37.674;2022-12-18T06:22:11;12.86;90.86
75925;DHT22;64604;44.752;37.674;2022-12-18T06:23:12;12.88;90.63
75925;DHT22;64604;44.752;37.674;2022-12-18T06:24:14;12.88;90.77
75925;DHT22;64604;44.752;37.674;2022-12-18T06:25:15;12.90;90.71
75925;DHT22;64604;44.752;37.674;2022-12-18T06:26:17;12.88;91.03
75925;DHT22;64604;44.752;37.674;2022-12-18T06:27:18;12.89;91.05
75925;DHT22;64604;44.752;37.674;2022-12-18T06:28:20;12.89;91.08
75925;DHT22;64604;44.752;37.674;2022-12-18T06:29:21;12.89;91.22
75925;DHT22;64604;44.752;37.674;2022-12-18T06:30:23;12.90;91.26
75925;DHT22;64604;44.752;37.674;2022-12-18T06:31:25;12.90;91.27
75925;DHT22;64604;44.752;37.674;2022-12-18T06:32:26;12.93;91.21
75925;DHT22;64604;44.752;37.674;2022-12-18T06:33:28;12.96;91.13
75925;DHT22;64604;44.752;37.674;2022-12-18T06:34:29;13.00;90.95
75925;DHT22;64604;44.752;37.674;2022-12-18T06:35:32;13.03;90.92
75925;DHT22;64604;44.752;37.674;2022-12-18T06:36:33;13.04;90.95
75925;DHT22;64604;44.752;37.674;2022-12-18T06:37:34;13.07;90.89
75925;DHT22;64604;44.752;37.674;2022-12-18T06:38:37;13.10;90.73
75925;DHT22;64604;44.752;37.674;2022-12-18T06:39:39;13.12;90.64
75925;DHT22;64604;44.752;37.674;2022-12-18T06:40:40;13.16;90.59
75925;DHT22;64604;44.752;37.674;2022-12-18T06:41:41;13.19;90.50
75925;DHT22;64604;44.752;37.674;2022-12-18T06:42:43;13.25;90.31
75925;DHT22;64604;44.752;37.674;2022-12-18T06:43:44;13.33;90.16
75925;DHT22;64604;44.752;37.674;2022-12-18T06:44:46;13.39;89.89
75925;DHT22;64604;44.752;37.674;2022-12-18T06:45:47;13.44;89.70
75925;DHT22;64604;44.752;37.674;2022-12-18T06:46:53;13.51;89.38
75925;DHT22;64604;44.752;37.674;2022-12-18T06:47:54;13.53;89.07
75925;DHT22;64604;44.752;37.674;2022-12-18T06:48:56;13.52;89.28
75925;DHT22;64604;44.752;37.674;2022-12-18T06:49:57;13.55;89.18
75925;DHT22;64604;44.752;37.674;2022-12-18T06:50:58;13.58;89.17
75925;DHT22;64604;44.752;37.674;2022-12-18T06:52:00;13.61;88.96
75925;DHT22;64604;44.752;37.674;2022-12-18T06:53:01;13.64;88.80
75925;DHT22;64604;44.752;37.674;2022-12-18T06:54:02;13.69;88.89
75925;DHT22;64604;44.752;37.674;2022-12-18T06:55:05;13.74;88.58
75925;DHT22;64604;44.752;37.674;2022-12-18T06:56:08;13.77;88.48
75925;DHT22;64604;44.752;37.674;2022-12-18T06:57:09;13.77;88.56
75925;DHT22;64604;44.752;37.674;2022-12-18T06:58:11;13.82;88.54
75925;DHT22;64604;44.752;37.674;2022-12-18T06:59:13;13.91;88.20
75925;DHT22;64604;44.752;37.674;2022-12-18T07:00:15;14.00;87.78
75925;DHT22;64604;44.752;37.674;2022-12-18T07:01:17;14.06;87.44
75925;DHT22;64604;44.752;37.674;2022-12-18T07:02:18;14.07;87.43
75925;DHT22;64604;44.752;37.674;2022-12-18T07:03:19;14.09;87.32
75925;DHT22;64604;44.752;37.674;2022-12-18T07:04:21;14.13;87.19
75925;DHT22;64604;44.752;37.674;2022-12-18T07:05:22;14.11;87.05
75925;DHT22;64604;44.752;37.674;2022-12-18T07:06:25;14.10;87.20